Sitc Shimizu — VRLG2 — position and weather

sailwx.info

Track history (hours):
 
Tides and Currents Weather Stations Pressure Air Temp Water Temp Dewpoint Dewpoint Depression Visibility Wind Speed Wind Dir Waves Ship Positions

Sitc Shimizu

Last reported at 2017-Nov-16 18:14 UTC. Time now 2017-Nov-24 05:48 UTC.
Position N 31°10' E 122°12'.

Length 143 m; draft 8.2 m.

Type: Ship (hazmat cat D). MMSI: 477335600.

Date/timePositionNaut miles runAvg speedWind from/ knotsBaromVisibWave heightAir tempDewpointWater temp
2017-Nov-16 18:14N 31°10' E 122°12'414.5
2017-Nov-16 17:59N 31°12' E 122°09'714.2
2017-Nov-16 17:31N 31°14' E 122°02'714.4
2017-Nov-16 17:00N 31°16' E 121°53'612.8
2017-Nov-16 16:30N 31°18' E 121°46'4 8.6
2017-Nov-16 16:00N 31°20' E 121°42'2 4.2
2017-Nov-16 15:29N 31°20' E 121°39'0 0.0
2017-Nov-16 14:59N 31°20' E 121°39'0 0.0
2017-Nov-16 14:29N 31°20' E 121°39'0 0.0
2017-Nov-16 13:59N 31°20' E 121°39'0 0.0
2017-Nov-16 13:29N 31°20' E 121°39'0 0.0
2017-Nov-16 12:59N 31°20' E 121°39'0 0.0
2017-Nov-16 12:26N 31°20' E 121°39'0 0.0
2017-Nov-16 11:59N 31°20' E 121°39'0 0.0
2017-Nov-16 11:26N 31°20' E 121°39'0 0.0
2017-Nov-16 10:59N 31°20' E 121°39'0 0.0
2017-Nov-16 10:29N 31°20' E 121°39'0 0.0
2017-Nov-16 09:59N 31°20' E 121°39'0 0.0
2017-Nov-16 09:26N 31°20' E 121°39'0 0.0
2017-Nov-16 08:59N 31°20' E 121°39'0 0.0
2017-Nov-16 08:29N 31°20' E 121°39'0 0.0
2017-Nov-16 08:00N 31°20' E 121°39'0 0.2
2017-Nov-16 07:30N 31°20' E 121°39'3 5.8
2017-Nov-16 07:00N 31°19' E 121°43'4 8.9
2017-Nov-16 06:30N 31°18' E 121°47'4 8.7
2017-Nov-16 06:00N 31°16' E 121°52'611.9
2017-Nov-16 05:29N 31°15' E 121°59'612.7
2017-Nov-16 05:00N 31°14' E 122°06'  
2017-Nov-12 10:53N 34°53' E 139°24'512.4
2017-Nov-12 10:30N 34°57' E 139°28'612.5
2017-Nov-12 10:00N 35°01' E 139°34'613.0
2017-Nov-12 09:30N 35°05' E 139°40'713.2
2017-Nov-12 09:00N 35°10' E 139°45'612.6
2017-Nov-12 08:30N 35°16' E 139°45'612.8
2017-Nov-12 08:00N 35°22' E 139°42'2 4.6
2017-Nov-12 07:28N 35°24' E 139°41'0 0.0
2017-Nov-12 06:58N 35°24' E 139°41'0 0.0
2017-Nov-12 06:30N 35°24' E 139°41'0 0.0
2017-Nov-12 06:00N 35°24' E 139°41'0 0.0
2017-Nov-12 05:30N 35°24' E 139°41'0 0.0
2017-Nov-12 05:00N 35°24' E 139°41'0 0.0
2017-Nov-12 04:30N 35°24' E 139°41'0 0.0
2017-Nov-12 04:00N 35°24' E 139°41'0 0.0
2017-Nov-12 03:30N 35°24' E 139°41'0 0.0
2017-Nov-12 03:00N 35°24' E 139°41'0 0.0
2017-Nov-12 02:30N 35°24' E 139°41'0 0.0
2017-Nov-12 02:00N 35°24' E 139°41'0 0.0
2017-Nov-12 01:30N 35°24' E 139°41'0 0.0
2017-Nov-12 01:00N 35°24' E 139°41'0 0.0
2017-Nov-12 00:30N 35°24' E 139°41'0 0.0
2017-Nov-12 00:00N 35°24' E 139°41'0 0.0
2017-Nov-11 23:30N 35°24' E 139°41'0 0.3
2017-Nov-11 23:00N 35°24' E 139°41'2 3.5
2017-Nov-11 22:30N 35°22' E 139°42'2 3.3
2017-Nov-11 22:00N 35°21' E 139°43'4 7.2
2017-Nov-11 21:30N 35°18' E 139°45'4 8.6
2017-Nov-11 21:00N 35°14' E 139°47'4 8.4
2017-Nov-11 20:30N 35°10' E 139°46'5 9.1
2017-Nov-11 20:00N 35°05' E 139°45'611.8
2017-Nov-11 19:30N 35°01' E 139°39'  
Track history (hours):
 
Tides and Currents Weather Stations Pressure Air Temp Water Temp Dewpoint Dewpoint Depression Visibility Wind Speed Wind Dir Waves Ship Positions

Sitc Shimizu

Last reported at 2017-Nov-16 18:14 UTC. Time now 2017-Nov-24 05:48 UTC.
Position N 31°10' E 122°12'.

Length 143 m; draft 8.2 m.

Type: Ship (hazmat cat D). MMSI: 477335600.

Date/timePositionNaut miles runAvg speedWind from/ knotsBaromVisibWave heightAir tempDewpointWater temp
2017-Nov-16 18:14N 31°10' E 122°12'414.5
2017-Nov-16 17:59N 31°12' E 122°09'714.2
2017-Nov-16 17:31N 31°14' E 122°02'714.4
2017-Nov-16 17:00N 31°16' E 121°53'612.8
2017-Nov-16 16:30N 31°18' E 121°46'4 8.6
2017-Nov-16 16:00N 31°20' E 121°42'2 4.2
2017-Nov-16 15:29N 31°20' E 121°39'0 0.0
2017-Nov-16 14:59N 31°20' E 121°39'0 0.0
2017-Nov-16 14:29N 31°20' E 121°39'0 0.0
2017-Nov-16 13:59N 31°20' E 121°39'0 0.0
2017-Nov-16 13:29N 31°20' E 121°39'0 0.0
2017-Nov-16 12:59N 31°20' E 121°39'0 0.0
2017-Nov-16 12:26N 31°20' E 121°39'0 0.0
2017-Nov-16 11:59N 31°20' E 121°39'0 0.0
2017-Nov-16 11:26N 31°20' E 121°39'0 0.0
2017-Nov-16 10:59N 31°20' E 121°39'0 0.0
2017-Nov-16 10:29N 31°20' E 121°39'0 0.0
2017-Nov-16 09:59N 31°20' E 121°39'0 0.0
2017-Nov-16 09:26N 31°20' E 121°39'0 0.0
2017-Nov-16 08:59N 31°20' E 121°39'0 0.0
2017-Nov-16 08:29N 31°20' E 121°39'0 0.0
2017-Nov-16 08:00N 31°20' E 121°39'0 0.2
2017-Nov-16 07:30N 31°20' E 121°39'3 5.8
2017-Nov-16 07:00N 31°19' E 121°43'4 8.9
2017-Nov-16 06:30N 31°18' E 121°47'4 8.7
2017-Nov-16 06:00N 31°16' E 121°52'611.9
2017-Nov-16 05:29N 31°15' E 121°59'612.7
2017-Nov-16 05:00N 31°14' E 122°06'  
2017-Nov-12 10:53N 34°53' E 139°24'512.4
2017-Nov-12 10:30N 34°57' E 139°28'612.5
2017-Nov-12 10:00N 35°01' E 139°34'613.0
2017-Nov-12 09:30N 35°05' E 139°40'713.2
2017-Nov-12 09:00N 35°10' E 139°45'612.6
2017-Nov-12 08:30N 35°16' E 139°45'612.8
2017-Nov-12 08:00N 35°22' E 139°42'2 4.6
2017-Nov-12 07:28N 35°24' E 139°41'0 0.0
2017-Nov-12 06:58N 35°24' E 139°41'0 0.0
2017-Nov-12 06:30N 35°24' E 139°41'0 0.0
2017-Nov-12 06:00N 35°24' E 139°41'0 0.0
2017-Nov-12 05:30N 35°24' E 139°41'0 0.0
2017-Nov-12 05:00N 35°24' E 139°41'0 0.0
2017-Nov-12 04:30N 35°24' E 139°41'0 0.0
2017-Nov-12 04:00N 35°24' E 139°41'0 0.0
2017-Nov-12 03:30N 35°24' E 139°41'0 0.0
2017-Nov-12 03:00N 35°24' E 139°41'0 0.0
2017-Nov-12 02:30N 35°24' E 139°41'0 0.0
2017-Nov-12 02:00N 35°24' E 139°41'0 0.0
2017-Nov-12 01:30N 35°24' E 139°41'0 0.0
2017-Nov-12 01:00N 35°24' E 139°41'0 0.0
2017-Nov-12 00:30N 35°24' E 139°41'0 0.0
2017-Nov-12 00:00N 35°24' E 139°41'0 0.0
2017-Nov-11 23:30N 35°24' E 139°41'0 0.3
2017-Nov-11 23:00N 35°24' E 139°41'2 3.5
2017-Nov-11 22:30N 35°22' E 139°42'2 3.3
2017-Nov-11 22:00N 35°21' E 139°43'4 7.2
2017-Nov-11 21:30N 35°18' E 139°45'4 8.6
2017-Nov-11 21:00N 35°14' E 139°47'4 8.4
2017-Nov-11 20:30N 35°10' E 139°46'5 9.1
2017-Nov-11 20:00N 35°05' E 139°45'611.8
2017-Nov-11 19:30N 35°01' E 139°39'  

Dump ship's entire track history